createdAt,value
2022-11-14T00:01:22.575Z,14.00
2022-11-14T00:03:51.467Z,12.90
2022-11-14T00:06:19.494Z,11.93
2022-11-14T00:08:48.977Z,14.00
2022-11-14T00:11:17.468Z,13.30
2022-11-14T00:13:46.513Z,13.97
2022-11-14T00:16:14.583Z,12.30
2022-11-14T00:18:42.654Z,13.33
2022-11-14T00:21:10.878Z,12.60
2022-11-14T00:23:38.904Z,14.07
2022-11-14T00:26:08.594Z,15.30
2022-11-14T00:28:36.667Z,14.63
2022-11-14T00:31:04.818Z,14.30
2022-11-14T00:33:32.924Z,12.63
2022-11-14T00:36:00.993Z,14.20
2022-11-14T00:38:29.400Z,13.50
2022-11-14T00:40:57.756Z,14.70
2022-11-14T00:43:27.214Z,14.53
2022-11-14T00:45:55.256Z,14.37
2022-11-14T00:48:23.301Z,15.77
2022-11-14T00:50:51.469Z,13.80
2022-11-14T00:53:19.550Z,15.93
2022-11-14T00:55:47.588Z,15.90
2022-11-14T00:58:15.690Z,14.93
2022-11-14T01:00:45.278Z,16.23
2022-11-14T01:03:13.435Z,14.90
2022-11-14T01:05:45.402Z,15.93
2022-11-14T01:08:14.726Z,14.87
2022-11-14T01:10:43.332Z,16.93
2022-11-14T01:13:12.173Z,16.80
2022-11-14T01:15:41.227Z,16.70
2022-11-14T01:18:13.020Z,15.30
2022-11-14T01:20:41.643Z,15.70
2022-11-14T01:23:10.799Z,16.70
2022-11-14T01:25:40.248Z,15.63
2022-11-14T01:28:11.723Z,18.77
2022-11-14T01:30:40.038Z,17.30
2022-11-14T01:33:08.457Z,18.70
2022-11-14T01:35:39.257Z,19.77
2022-11-14T01:38:07.752Z,18.30
2022-11-14T01:40:35.853Z,19.00
2022-11-14T01:43:26.691Z,15.47
2022-11-14T01:45:57.906Z,17.37
2022-11-14T01:48:32.167Z,16.60
2022-11-14T01:51:05.270Z,14.50
2022-11-14T01:53:33.753Z,14.30
2022-11-14T01:56:05.858Z,15.37
2022-11-14T01:58:37.390Z,14.60
2022-11-14T02:01:05.808Z,14.57
2022-11-14T02:03:37.283Z,12.90
2022-11-14T02:06:08.618Z,14.50
2022-11-14T02:08:38.092Z,16.00
2022-11-14T02:11:06.607Z,15.20
2022-11-14T02:13:34.681Z,17.00
2022-11-14T02:16:02.943Z,17.87
2022-11-14T02:18:31.183Z,16.43
2022-11-14T02:21:00.877Z,14.07
2022-11-14T02:23:30.803Z,15.97
2022-11-14T02:25:59.173Z,15.50
2022-11-14T02:28:28.033Z,16.10
2022-11-14T02:30:57.010Z,18.47
2022-11-14T02:33:25.047Z,18.00
2022-11-14T02:35:53.107Z,15.90
2022-11-14T02:38:22.630Z,17.27
2022-11-14T02:40:50.701Z,17.97
2022-11-14T02:43:18.856Z,18.77
2022-11-14T02:45:46.965Z,19.17
2022-11-14T02:48:15.258Z,22.67
2022-11-14T02:50:43.735Z,27.67
2022-11-14T02:53:11.906Z,26.90
2022-11-14T02:55:41.442Z,28.53
2022-11-14T02:58:09.585Z,23.77
2022-11-14T03:00:53.342Z,23.90
2022-11-14T03:03:25.647Z,20.50
2022-11-14T03:05:54.694Z,18.33
2022-11-14T03:08:22.758Z,17.27
2022-11-14T03:10:52.254Z,17.37
2022-11-14T03:13:20.377Z,15.57
2022-11-14T03:15:48.675Z,16.57
2022-11-14T03:18:16.748Z,15.87
2022-11-14T03:20:44.875Z,15.80
2022-11-14T03:23:12.935Z,15.27
2022-11-14T03:25:41.050Z,15.77
2022-11-14T03:28:10.496Z,15.53
2022-11-14T03:30:38.584Z,15.93
2022-11-14T03:33:06.654Z,17.67
2022-11-14T03:35:34.705Z,16.17
2022-11-14T03:38:02.824Z,18.60
2022-11-14T03:40:30.907Z,19.67
2022-11-14T03:42:59.107Z,19.07
2022-11-14T03:45:28.625Z,18.63
2022-11-14T03:47:56.815Z,20.47
2022-11-14T03:50:24.934Z,19.90
2022-11-14T03:52:53.086Z,19.50
2022-11-14T03:55:21.192Z,18.03
2022-11-14T03:57:49.355Z,19.30
2022-11-14T04:00:18.385Z,20.80
2022-11-14T04:02:47.902Z,18.00
2022-11-14T04:05:16.106Z,18.00
2022-11-14T04:07:44.218Z,17.87
2022-11-14T04:10:12.254Z,17.93
2022-11-14T04:12:40.658Z,17.73
2022-11-14T04:15:09.625Z,17.17
2022-11-14T04:17:40.022Z,18.47
2022-11-14T04:20:10.924Z,17.33
2022-11-14T04:22:39.051Z,18.80
2022-11-14T04:25:08.774Z,17.40
2022-11-14T04:27:36.942Z,17.63
2022-11-14T04:30:06.150Z,19.17
2022-11-14T04:32:34.328Z,22.83
2022-11-14T04:35:02.479Z,21.23
2022-11-14T04:37:32.161Z,21.77
2022-11-14T04:40:02.593Z,21.40
2022-11-14T04:42:30.629Z,22.03
2022-11-14T04:44:58.886Z,21.70
2022-11-14T04:47:26.970Z,21.10
2022-11-14T04:49:55.052Z,25.00
2022-11-14T04:52:23.104Z,22.57
2022-11-14T04:54:52.566Z,21.30
2022-11-14T04:57:20.758Z,20.30
2022-11-14T04:59:48.803Z,21.50
2022-11-14T05:02:16.871Z,20.30
2022-11-14T05:04:45.900Z,18.97
2022-11-14T05:07:14.670Z,19.10
2022-11-14T05:09:42.821Z,17.63
2022-11-14T05:12:12.241Z,16.70
2022-11-14T05:14:40.294Z,18.33
2022-11-14T05:17:08.478Z,18.23
2022-11-14T05:19:36.628Z,17.77
2022-11-14T05:22:04.687Z,17.07
2022-11-14T05:24:32.887Z,16.17
2022-11-14T05:27:01.084Z,14.83
2022-11-14T05:29:30.751Z,14.33
2022-11-14T05:31:59.244Z,15.03
2022-11-14T05:34:27.363Z,14.57
2022-11-14T05:36:55.690Z,14.30
2022-11-14T05:39:23.811Z,14.00
2022-11-14T05:41:51.872Z,14.20
2022-11-14T05:44:19.952Z,14.50
2022-11-14T05:46:49.507Z,12.90
2022-11-14T05:49:21.776Z,13.40
2022-11-14T05:51:50.130Z,12.80
2022-11-14T05:54:18.239Z,14.10
2022-11-14T05:56:46.350Z,14.80
2022-11-14T05:59:14.416Z,13.70
2022-11-14T06:01:42.944Z,12.63
2022-11-14T06:04:14.241Z,12.33
2022-11-14T06:06:42.604Z,11.77
2022-11-14T06:09:10.870Z,12.90
2022-11-14T06:11:39.059Z,13.87
2022-11-14T06:14:10.924Z,16.60
2022-11-14T06:16:39.366Z,14.53
2022-11-14T06:19:07.431Z,13.73
2022-11-14T06:21:37.056Z,14.97
2022-11-14T06:24:05.563Z,16.10
2022-11-14T06:26:34.077Z,17.27
2022-11-14T06:29:02.220Z,16.33
2022-11-14T06:31:30.470Z,16.80
2022-11-14T06:33:58.633Z,18.10
2022-11-14T06:36:27.157Z,17.43
2022-11-14T06:38:56.734Z,18.07
2022-11-14T06:41:25.090Z,18.33
2022-11-14T06:43:54.883Z,18.60
2022-11-14T06:46:24.297Z,19.83
2022-11-14T06:48:52.663Z,20.63
2022-11-14T06:51:20.881Z,20.07
2022-11-14T06:53:49.148Z,22.03
2022-11-14T06:56:20.339Z,19.20
2022-11-14T06:58:50.689Z,18.80
2022-11-14T07:01:20.401Z,20.10
2022-11-14T07:03:49.034Z,20.30
2022-11-14T07:06:18.752Z,20.83
2022-11-14T07:08:47.085Z,22.77
2022-11-14T07:11:23.089Z,21.73
2022-11-14T07:13:53.964Z,21.40
2022-11-14T07:16:24.956Z,22.60
2022-11-14T07:18:53.175Z,21.37
2022-11-14T07:21:21.274Z,21.47
2022-11-14T07:23:49.491Z,22.60
2022-11-14T07:26:17.537Z,19.70
2022-11-14T07:28:51.796Z,22.47
2022-11-14T07:31:22.531Z,21.97
2022-11-14T07:33:50.646Z,22.40
2022-11-14T07:36:19.067Z,22.90
2022-11-14T07:38:47.275Z,22.20
2022-11-14T07:41:17.442Z,20.27
2022-11-14T07:43:45.957Z,21.67
2022-11-14T07:46:15.754Z,21.20
2022-11-14T07:48:45.696Z,21.27
2022-11-14T07:51:17.276Z,21.07
2022-11-14T07:53:45.884Z,21.47
2022-11-14T07:56:14.179Z,21.20
2022-11-14T07:58:43.268Z,21.37
2022-11-14T08:01:14.037Z,21.47
2022-11-14T08:03:45.721Z,21.40
2022-11-14T08:06:17.498Z,22.57
2022-11-14T08:08:45.582Z,20.60
2022-11-14T08:11:15.083Z,19.50
2022-11-14T08:13:51.411Z,24.20
2022-11-14T08:16:19.521Z,29.93
2022-11-14T08:18:47.560Z,21.87
2022-11-14T08:21:17.049Z,20.90
2022-11-14T08:23:45.929Z,19.83
2022-11-14T08:26:14.052Z,18.70
2022-11-14T08:28:42.167Z,19.30
2022-11-14T08:31:10.391Z,23.77
2022-11-14T08:33:38.542Z,21.83
2022-11-14T08:36:09.309Z,22.40
2022-11-14T08:38:38.763Z,20.00
2022-11-14T08:41:07.035Z,20.77
2022-11-14T08:43:35.158Z,20.60
2022-11-14T08:46:05.438Z,22.27
2022-11-14T08:48:34.294Z,20.40
2022-11-14T08:51:06.212Z,19.70
2022-11-14T08:53:35.876Z,20.70
2022-11-14T08:56:05.735Z,19.77
2022-11-14T08:58:34.435Z,18.37
2022-11-14T09:01:03.563Z,23.57
2022-11-14T09:03:32.408Z,21.57
2022-11-14T09:06:01.449Z,20.47
2022-11-14T09:08:30.465Z,20.27
2022-11-14T09:11:05.493Z,20.73
2022-11-14T09:13:36.616Z,19.40
2022-11-14T09:16:04.820Z,20.60
2022-11-14T09:18:33.242Z,20.30
2022-11-14T09:21:03.145Z,20.40
2022-11-14T09:23:31.906Z,18.03
2022-11-14T09:26:04.347Z,19.47
2022-11-14T09:28:32.492Z,18.23
2022-11-14T09:31:06.994Z,19.30
2022-11-14T09:33:36.019Z,18.13
2022-11-14T09:36:06.467Z,18.33
2022-11-14T09:38:38.450Z,18.00
2022-11-14T09:41:21.174Z,20.67
2022-11-14T09:44:17.741Z,18.93
2022-11-14T09:46:54.681Z,19.23
2022-11-14T09:49:29.101Z,19.13
2022-11-14T09:52:03.994Z,18.33
2022-11-14T09:54:43.683Z,15.70
2022-11-14T09:57:17.108Z,15.87
2022-11-14T09:59:45.426Z,17.40
2022-11-14T10:02:30.245Z,18.33
2022-11-14T10:05:10.505Z,16.17
2022-11-14T10:07:50.006Z,16.97
2022-11-14T10:10:39.060Z,17.60
2022-11-14T10:13:19.414Z,17.70
2022-11-14T10:15:51.967Z,18.37
2022-11-14T10:18:37.671Z,18.27
2022-11-14T10:21:18.970Z,17.00
2022-11-14T10:24:00.837Z,20.03
2022-11-14T10:26:31.289Z,19.80
2022-11-14T10:29:23.534Z,20.43
2022-11-14T10:32:00.349Z,18.20
2022-11-14T10:34:36.334Z,17.70
2022-11-14T10:37:15.709Z,19.30
2022-11-14T10:39:49.912Z,18.67
2022-11-14T10:42:24.806Z,19.17
2022-11-14T10:44:57.212Z,17.57
2022-11-14T10:47:30.819Z,17.33
2022-11-14T10:50:06.387Z,16.00
2022-11-14T10:52:40.779Z,15.20
2022-11-14T10:55:15.559Z,15.30
2022-11-14T10:57:44.650Z,15.40
2022-11-14T11:00:14.642Z,16.73
2022-11-14T11:02:52.065Z,18.23
2022-11-14T11:05:24.279Z,17.60
2022-11-14T11:08:42.139Z,16.97
2022-11-14T11:11:17.960Z,18.83
2022-11-14T11:13:55.032Z,18.70
2022-11-14T11:16:24.870Z,19.60
2022-11-14T11:18:53.435Z,20.07
2022-11-14T11:21:24.543Z,18.00
2022-11-14T11:23:54.780Z,19.57
2022-11-14T11:26:25.324Z,17.43
2022-11-14T11:29:06.090Z,18.70
2022-11-14T11:31:54.424Z,18.63
2022-11-14T11:34:27.360Z,14.60
2022-11-14T11:37:00.162Z,16.17
2022-11-14T11:39:31.251Z,20.00
2022-11-14T11:42:10.601Z,18.97
2022-11-14T11:44:45.494Z,20.57
2022-11-14T11:47:18.164Z,20.00
2022-11-14T11:49:53.310Z,19.67
2022-11-14T11:52:33.236Z,20.27
2022-11-14T11:55:06.531Z,18.23
2022-11-14T11:57:40.347Z,22.13
2022-11-14T12:00:16.099Z,18.27
2022-11-14T12:02:49.978Z,19.17
2022-11-14T12:05:19.837Z,20.03
2022-11-14T12:07:56.531Z,20.17
2022-11-14T12:10:27.904Z,19.13
2022-11-14T12:13:19.421Z,18.90
2022-11-14T12:16:00.139Z,16.97
2022-11-14T12:18:43.792Z,19.80
2022-11-14T12:21:14.662Z,19.07
2022-11-14T12:24:18.138Z,17.97
2022-11-14T12:27:00.603Z,18.20
2022-11-14T12:29:55.193Z,20.40
2022-11-14T12:32:32.037Z,16.90
2022-11-14T12:35:01.404Z,18.63
2022-11-14T12:37:34.634Z,17.23
2022-11-14T12:40:06.798Z,17.77
2022-11-14T12:42:37.018Z,16.30
2022-11-14T12:45:05.606Z,15.13
2022-11-14T12:47:33.714Z,16.10
2022-11-14T12:50:06.548Z,16.60
2022-11-14T12:52:52.941Z,17.20
2022-11-14T12:55:56.142Z,14.93
2022-11-14T12:58:51.653Z,15.50
2022-11-14T13:01:38.905Z,16.80
2022-11-14T13:04:37.999Z,17.53
2022-11-14T13:07:27.598Z,18.90
2022-11-14T13:10:13.127Z,17.27
2022-11-14T13:13:00.071Z,18.93
2022-11-14T13:15:49.887Z,17.43
2022-11-14T13:18:41.302Z,17.77
2022-11-14T13:21:43.742Z,19.03
2022-11-14T13:24:16.318Z,17.70
2022-11-14T13:26:54.319Z,17.33
2022-11-14T13:30:00.002Z,17.87
2022-11-14T13:33:07.782Z,18.40
2022-11-14T13:36:02.121Z,16.73
2022-11-14T13:39:11.972Z,16.00
2022-11-14T13:42:02.654Z,15.80
2022-11-14T13:44:55.680Z,16.23
2022-11-14T13:47:46.565Z,20.57
2022-11-14T13:50:18.339Z,18.67
2022-11-14T13:52:49.346Z,19.57
2022-11-14T13:55:23.040Z,17.87
2022-11-14T13:58:04.314Z,15.57
2022-11-14T14:00:54.041Z,16.67
2022-11-14T14:03:34.566Z,16.90
2022-11-14T14:06:14.197Z,18.60
2022-11-14T14:09:10.335Z,17.80
2022-11-14T14:11:52.179Z,15.97
2022-11-14T14:14:38.041Z,17.17
2022-11-14T14:17:13.075Z,17.73
2022-11-14T14:19:56.642Z,14.67
2022-11-14T14:22:34.266Z,15.93
2022-11-14T14:25:15.239Z,14.57
2022-11-14T14:27:59.076Z,13.50
2022-11-14T14:30:27.444Z,14.57
2022-11-14T14:33:15.303Z,16.07
2022-11-14T14:35:52.256Z,14.40
2022-11-14T14:38:25.216Z,14.37
2022-11-14T14:40:56.826Z,14.03
2022-11-14T14:43:30.514Z,14.10
2022-11-14T14:45:59.161Z,16.43
2022-11-14T14:48:30.357Z,15.30
2022-11-14T14:51:00.473Z,15.40
2022-11-14T14:53:31.103Z,17.00
2022-11-14T14:56:02.881Z,15.20
2022-11-14T14:58:33.616Z,15.63
2022-11-14T15:01:05.174Z,15.70
2022-11-14T15:03:37.464Z,14.73
2022-11-14T15:06:07.766Z,14.40
2022-11-14T15:08:39.814Z,14.80
2022-11-14T15:11:09.766Z,14.90
2022-11-14T15:13:39.415Z,14.13
2022-11-14T15:16:09.623Z,14.33
2022-11-14T15:18:38.569Z,14.40
2022-11-14T15:21:12.058Z,16.63
2022-11-14T15:23:41.122Z,15.53
2022-11-14T15:26:17.177Z,14.80
2022-11-14T15:28:45.579Z,15.30
2022-11-14T15:31:21.878Z,15.87
2022-11-14T15:34:03.704Z,14.77
2022-11-14T15:36:31.875Z,13.33
2022-11-14T15:39:02.416Z,15.47
2022-11-14T15:41:32.877Z,14.30
2022-11-14T15:44:05.327Z,15.37
2022-11-14T15:46:43.011Z,15.27
2022-11-14T15:49:20.062Z,15.37
2022-11-14T15:51:50.539Z,16.37
2022-11-14T15:54:28.399Z,14.53
2022-11-14T15:56:59.624Z,15.33
2022-11-14T15:59:29.114Z,14.73
2022-11-14T16:02:00.607Z,14.10
2022-11-14T16:04:32.183Z,14.00
2022-11-14T16:07:00.698Z,15.13
2022-11-14T16:09:28.802Z,14.23
2022-11-14T16:11:58.437Z,15.07
2022-11-14T16:14:26.700Z,14.53
2022-11-14T16:16:54.818Z,15.40
2022-11-14T16:19:23.117Z,14.13
2022-11-14T16:21:51.468Z,13.03
2022-11-14T16:24:21.518Z,13.50
2022-11-14T16:26:50.477Z,14.20
2022-11-14T16:29:19.979Z,14.03
2022-11-14T16:31:48.641Z,14.40
2022-11-14T16:34:19.879Z,15.90
2022-11-14T16:36:48.766Z,14.60
2022-11-14T16:39:17.109Z,15.50
2022-11-14T16:41:45.201Z,15.63
2022-11-14T16:44:17.748Z,15.20
2022-11-14T16:46:47.648Z,15.77
2022-11-14T16:49:16.888Z,14.47
2022-11-14T16:51:48.556Z,14.00
2022-11-14T16:54:17.952Z,13.97
2022-11-14T16:56:46.273Z,14.00
2022-11-14T16:59:14.877Z,13.67
2022-11-14T17:01:43.825Z,12.40
2022-11-14T17:04:13.439Z,13.63
2022-11-14T17:06:41.563Z,12.97
2022-11-14T17:09:09.743Z,13.47
2022-11-14T17:11:37.976Z,14.10
2022-11-14T17:14:06.191Z,13.40
2022-11-14T17:16:34.367Z,11.70
2022-11-14T17:19:03.673Z,13.53
2022-11-14T17:21:33.262Z,11.43
2022-11-14T17:24:02.698Z,9.80
2022-11-14T17:26:31.458Z,10.60
2022-11-14T17:28:59.596Z,12.00
2022-11-14T17:31:27.693Z,8.70
2022-11-14T17:33:57.618Z,10.10
2022-11-14T17:36:27.421Z,11.03
2022-11-14T17:38:57.562Z,10.63
2022-11-14T17:41:25.870Z,10.53
2022-11-14T17:43:56.676Z,9.77
2022-11-14T17:46:24.811Z,10.43
2022-11-14T17:48:53.041Z,11.90
2022-11-14T17:51:21.144Z,11.40
2022-11-14T17:53:49.383Z,12.40
2022-11-14T17:56:21.560Z,11.57
2022-11-14T17:58:51.257Z,11.40
2022-11-14T18:01:21.551Z,11.00
2022-11-14T18:03:50.259Z,11.40
2022-11-14T18:06:20.429Z,11.97
2022-11-14T18:08:49.520Z,10.53
2022-11-14T18:11:20.455Z,11.30
2022-11-14T18:13:48.626Z,11.30
2022-11-14T18:16:19.259Z,11.30
2022-11-14T18:18:47.541Z,11.17
2022-11-14T18:21:18.338Z,11.40
2022-11-14T18:23:51.982Z,11.80
2022-11-14T18:26:27.127Z,11.80
2022-11-14T18:28:56.862Z,10.53
2022-11-14T18:31:25.635Z,10.90
2022-11-14T18:33:53.796Z,10.43
2022-11-14T18:36:22.237Z,10.33
2022-11-14T18:38:50.494Z,10.20
2022-11-14T18:41:22.288Z,10.10
2022-11-14T18:43:50.488Z,10.23
2022-11-14T18:46:20.658Z,10.90
2022-11-14T18:48:50.870Z,10.10
2022-11-14T18:51:21.473Z,9.93
2022-11-14T18:53:51.080Z,10.03
2022-11-14T18:56:22.382Z,11.03
2022-11-14T18:58:54.345Z,10.40
2022-11-14T19:01:26.279Z,9.30
2022-11-14T19:03:57.946Z,10.27
2022-11-14T19:06:26.248Z,10.80
2022-11-14T19:08:57.880Z,10.90
2022-11-14T19:11:45.028Z,10.00
2022-11-14T19:14:13.274Z,10.57
2022-11-14T19:16:41.384Z,10.47
2022-11-14T19:19:10.254Z,9.30
2022-11-14T19:21:38.592Z,9.17
2022-11-14T19:24:07.472Z,9.63
2022-11-14T19:26:37.435Z,9.90
2022-11-14T19:29:09.466Z,8.80
2022-11-14T19:31:37.877Z,8.60
2022-11-14T19:34:06.351Z,10.17
2022-11-14T19:39:23.386Z,10.30
2022-11-14T19:41:52.837Z,10.43
2022-11-14T19:44:20.965Z,10.70
2022-11-14T19:46:49.060Z,11.07
2022-11-14T19:49:17.348Z,9.43
2022-11-14T19:51:45.606Z,9.53
2022-11-14T19:54:13.886Z,8.93
2022-11-14T19:56:42.015Z,9.63
2022-11-14T19:59:15.521Z,8.97
2022-11-14T20:01:45.147Z,8.67
2022-11-14T20:04:14.144Z,9.60
2022-11-14T20:06:43.271Z,9.50
2022-11-14T20:09:12.214Z,9.40
2022-11-14T20:11:40.575Z,9.17
2022-11-14T20:14:08.763Z,11.20
2022-11-14T20:16:38.519Z,10.93
2022-11-14T20:19:06.975Z,11.30
2022-11-14T20:21:36.200Z,11.37
2022-11-14T20:24:04.588Z,12.10
2022-11-14T20:26:32.731Z,12.17
2022-11-14T20:29:00.900Z,10.47
2022-11-14T20:31:31.026Z,11.73
2022-11-14T20:34:01.170Z,11.40
2022-11-14T20:36:38.956Z,11.07
2022-11-14T20:39:17.467Z,11.07
2022-11-14T20:41:45.567Z,11.07
2022-11-14T20:44:13.695Z,10.83
2022-11-14T20:46:42.093Z,12.23
2022-11-14T20:49:11.878Z,11.30
2022-11-14T20:51:40.078Z,11.77
2022-11-14T20:54:10.273Z,10.57
2022-11-14T20:56:38.488Z,10.00
2022-11-14T20:59:07.351Z,10.23
2022-11-14T21:01:40.469Z,10.77
2022-11-14T21:04:12.896Z,9.80
2022-11-14T21:06:41.459Z,9.30
2022-11-14T21:09:10.950Z,10.50
2022-11-14T21:11:39.078Z,9.87
2022-11-14T21:14:09.103Z,10.00
2022-11-14T21:16:39.589Z,10.07
2022-11-14T21:19:08.591Z,11.07
2022-11-14T21:21:39.261Z,11.40
2022-11-14T21:24:09.108Z,12.00
2022-11-14T21:26:39.989Z,12.07
2022-11-14T21:29:11.205Z,12.50
2022-11-14T21:31:41.178Z,13.07
2022-11-14T21:34:12.406Z,12.53
2022-11-14T21:36:45.431Z,13.07
2022-11-14T21:39:15.702Z,13.23
2022-11-14T21:41:45.019Z,16.50
2022-11-14T21:44:16.535Z,18.93
2022-11-14T21:46:48.814Z,15.63
2022-11-14T21:49:18.112Z,14.67
2022-11-14T21:51:48.500Z,13.60
2022-11-14T21:54:16.765Z,13.20
2022-11-14T21:56:44.821Z,10.93
2022-11-14T21:59:15.973Z,10.30
2022-11-14T22:02:04.026Z,10.40
2022-11-14T22:04:32.829Z,10.27
2022-11-14T22:07:03.583Z,10.60
2022-11-14T22:09:32.468Z,11.30
2022-11-14T22:12:01.130Z,10.03
2022-11-14T22:14:29.575Z,10.13
2022-11-14T22:16:58.848Z,10.17
2022-11-14T22:19:26.991Z,10.03
2022-11-14T22:21:55.419Z,10.60
2022-11-14T22:24:25.041Z,8.70
2022-11-14T22:26:53.113Z,10.00
2022-11-14T22:29:21.243Z,9.80
2022-11-14T22:31:53.004Z,10.73
2022-11-14T22:34:21.260Z,8.67
2022-11-14T22:36:49.362Z,8.33
2022-11-14T22:39:17.464Z,9.93
2022-11-14T22:41:47.067Z,9.23
2022-11-14T22:44:15.178Z,9.33
2022-11-14T22:46:43.244Z,10.27
2022-11-14T22:49:11.411Z,10.27
2022-11-14T22:51:39.473Z,10.00
2022-11-14T22:54:07.640Z,9.67
2022-11-14T22:56:36.039Z,9.70
2022-11-14T22:59:05.742Z,9.13
2022-11-14T23:01:34.621Z,8.60
2022-11-14T23:04:04.956Z,8.80
2022-11-14T23:06:35.569Z,9.33
2022-11-14T23:09:05.188Z,9.17
2022-11-14T23:11:34.323Z,8.77
2022-11-14T23:14:02.944Z,8.80
2022-11-14T23:16:34.986Z,8.63
2022-11-14T23:19:05.358Z,9.67
2022-11-14T23:21:36.626Z,13.27
2022-11-14T23:24:06.710Z,9.10
2022-11-14T23:26:34.898Z,8.13
2022-11-14T23:29:03.150Z,7.90
2022-11-14T23:31:32.629Z,7.30
2022-11-14T23:34:00.672Z,8.70
2022-11-14T23:36:28.730Z,8.50
2022-11-14T23:38:57.039Z,8.33
2022-11-14T23:41:26.861Z,8.13
2022-11-14T23:43:55.109Z,6.63
2022-11-14T23:46:23.231Z,7.60
2022-11-14T23:48:53.481Z,7.10
2022-11-14T23:51:21.648Z,7.07
2022-11-14T23:53:49.740Z,7.00
2022-11-14T23:56:17.967Z,6.93
2022-11-14T23:58:46.171Z,8.00
